Time;durP1;ratioP1;P1;durP2;ratioP2;P2;SDS_P1;SDS_P2;PMS_P1;PMS_P2;Temp;Humidity;BMP_temperature;BMP_pressure;BME280_temperature;BME280_humidity;BME280_pressure;Samples;Min_cycle;Max_cycle;Signal;HPM_P1;HPM_P2
2023/08/16 00:01:22;;;;;;;14.02;5.28;;;19.50;99.90;;;;;;5051006;28;20678;-61
2023/08/16 00:03:51;;;;;;;11.20;5.40;;;19.50;99.90;;;;;;5048596;28;20286;-60
2023/08/16 00:06:19;;;;;;;13.68;4.95;;;19.40;99.90;;;;;;5047230;28;20205;-61
2023/08/16 00:08:48;;;;;;;19.95;6.05;;;19.40;99.90;;;;;;5046573;28;20308;-61
2023/08/16 00:11:16;;;;;;;9.15;5.65;;;19.40;99.90;;;;;;5048178;28;20244;-60
2023/08/16 00:13:44;;;;;;;10.00;5.90;;;19.40;99.90;;;;;;5044469;28;20225;-60
2023/08/16 00:16:12;;;;;;;12.93;6.13;;;19.40;99.90;;;;;;5046487;28;20201;-61
2023/08/16 00:18:40;;;;;;;13.85;5.95;;;19.40;99.90;;;;;;5050414;28;20378;-61
2023/08/16 00:21:07;;;;;;;15.32;6.57;;;19.40;99.90;;;;;;5049305;28;20288;-60
2023/08/16 00:23:35;;;;;;;12.40;6.53;;;19.40;99.90;;;;;;5052226;28;20723;-61
2023/08/16 00:26:04;;;;;;;10.90;6.75;;;19.30;99.90;;;;;;5052183;28;20252;-61
2023/08/16 00:28:32;;;;;;;10.23;6.05;;;19.30;99.90;;;;;;5052161;28;20233;-61
2023/08/16 00:31:00;;;;;;;11.93;5.60;;;19.30;99.90;;;;;;5047889;28;20256;-61
2023/08/16 00:33:28;;;;;;;18.25;6.43;;;19.30;99.90;;;;;;5037869;28;20665;-61
2023/08/16 00:35:56;;;;;;;14.70;6.53;;;19.30;99.90;;;;;;5052159;28;20898;-60
2023/08/16 00:38:24;;;;;;;17.10;6.13;;;19.30;99.90;;;;;;5037863;28;20202;-61
2023/08/16 00:40:52;;;;;;;16.23;5.80;;;19.20;99.90;;;;;;5050938;28;20234;-61
2023/08/16 00:43:21;;;;;;;8.85;5.80;;;19.20;99.90;;;;;;5042295;28;20253;-61
2023/08/16 00:45:49;;;;;;;13.85;5.85;;;19.20;99.90;;;;;;5051009;28;20276;-61
2023/08/16 00:48:17;;;;;;;10.23;6.60;;;19.20;99.90;;;;;;5038740;28;20241;-61
2023/08/16 00:50:45;;;;;;;12.77;5.88;;;19.20;99.90;;;;;;5050958;28;20226;-60
2023/08/16 00:53:13;;;;;;;10.85;5.47;;;19.20;99.90;;;;;;5053750;28;20718;-61
2023/08/16 00:55:41;;;;;;;16.95;6.68;;;19.10;99.90;;;;;;5043901;28;20292;-61
2023/08/16 00:58:09;;;;;;;15.77;6.05;;;19.10;99.90;;;;;;5048805;28;20258;-60
2023/08/16 01:00:38;;;;;;;8.23;5.72;;;19.10;99.90;;;;;;5049738;28;20243;-61
2023/08/16 01:03:06;;;;;;;9.55;5.15;;;19.10;99.90;;;;;;5043728;28;20254;-60
2023/08/16 01:05:34;;;;;;;11.85;5.05;;;19.10;99.90;;;;;;5048727;28;20237;-61
2023/08/16 01:08:02;;;;;;;12.35;4.75;;;19.10;99.90;;;;;;5047975;28;20807;-61
2023/08/16 01:10:33;;;;;;;10.95;4.65;;;19.10;99.90;;;;;;5049253;28;20706;-60
2023/08/16 01:13:04;;;;;;;16.02;5.57;;;19.10;99.90;;;;;;5048261;28;20222;-60
2023/08/16 01:15:34;;;;;;;12.05;4.47;;;19.10;99.90;;;;;;5050592;28;20241;-60
2023/08/16 01:18:04;;;;;;;13.80;5.65;;;19.10;99.90;;;;;;5047741;28;20288;-61
2023/08/16 01:20:32;;;;;;;13.98;6.07;;;19.10;99.90;;;;;;5050859;28;20217;-60
2023/08/16 01:23:06;;;;;;;17.05;7.60;;;19.10;99.90;;;;;;5049033;28;20221;-60
2023/08/16 01:25:51;;;;;;;21.77;7.18;;;19.10;99.90;;;;;;5051800;28;20656;-60
2023/08/16 01:28:20;;;;;;;17.55;7.60;;;19.10;99.90;;;;;;5045663;28;20220;-60
2023/08/16 01:30:48;;;;;;;17.60;8.05;;;19.10;99.90;;;;;;5046980;28;20206;-61
2023/08/16 01:33:16;;;;;;;18.55;8.48;;;19.10;99.90;;;;;;5050706;28;20229;-61
2023/08/16 01:35:45;;;;;;;23.30;9.35;;;19.10;99.90;;;;;;5037551;28;20205;-60
2023/08/16 01:38:14;;;;;;;20.63;10.40;;;19.10;99.90;;;;;;5045348;28;20208;-61
2023/08/16 01:40:45;;;;;;;18.60;9.68;;;19.10;99.90;;;;;;5050180;28;20293;-60
2023/08/16 01:43:14;;;;;;;22.83;10.00;;;19.10;99.90;;;;;;5045709;28;20329;-61
2023/08/16 01:45:43;;;;;;;18.20;9.65;;;19.10;99.90;;;;;;5045210;28;20222;-60
2023/08/16 01:48:11;;;;;;;21.65;9.77;;;19.10;99.90;;;;;;5044636;28;20206;-61
2023/08/16 01:50:39;;;;;;;14.15;9.45;;;19.10;99.90;;;;;;5048094;28;20229;-60
2023/08/16 01:53:07;;;;;;;17.23;8.48;;;19.10;99.90;;;;;;5043153;28;20314;-61
2023/08/16 01:55:35;;;;;;;15.93;9.13;;;19.10;99.90;;;;;;5047671;28;20210;-61
2023/08/16 01:58:03;;;;;;;15.55;9.38;;;19.10;99.90;;;;;;5040786;28;20203;-61
2023/08/16 02:00:31;;;;;;;18.05;9.90;;;19.00;99.90;;;;;;5048784;28;20225;-61
2023/08/16 02:03:00;;;;;;;15.32;9.13;;;19.10;99.90;;;;;;5047106;28;20226;-59
2023/08/16 02:05:28;;;;;;;18.10;9.50;;;19.00;99.90;;;;;;5049641;28;20208;-61
2023/08/16 02:07:56;;;;;;;15.70;8.68;;;19.10;99.90;;;;;;5044852;28;20209;-60
2023/08/16 02:10:24;;;;;;;16.25;8.77;;;19.10;99.90;;;;;;5043209;28;20659;-61
2023/08/16 02:12:52;;;;;;;15.40;9.77;;;19.10;99.90;;;;;;5045714;28;20232;-61
2023/08/16 02:15:20;;;;;;;20.42;10.27;;;19.10;99.90;;;;;;5050922;28;20201;-60
2023/08/16 02:17:48;;;;;;;13.40;9.43;;;19.10;99.90;;;;;;5044231;28;20198;-60
2023/08/16 02:20:17;;;;;;;22.13;10.60;;;19.10;99.90;;;;;;5040506;28;20203;-61
2023/08/16 02:22:45;;;;;;;18.73;9.65;;;19.10;99.90;;;;;;5042922;28;20320;-61
2023/08/16 02:25:13;;;;;;;22.02;9.00;;;19.10;99.90;;;;;;5051834;28;20229;-61
2023/08/16 02:27:41;;;;;;;13.70;8.90;;;19.00;99.90;;;;;;5039427;28;20289;-60
2023/08/16 02:30:09;;;;;;;19.52;9.50;;;19.00;99.90;;;;;;5048453;28;20225;-60
2023/08/16 02:32:37;;;;;;;21.95;9.73;;;19.10;99.90;;;;;;5036899;28;20299;-60
2023/08/16 02:35:05;;;;;;;20.70;9.18;;;19.00;99.90;;;;;;5045391;28;20206;-59
2023/08/16 02:37:35;;;;;;;19.15;8.95;;;19.00;99.90;;;;;;5051460;28;20245;-60
2023/08/16 02:40:03;;;;;;;21.63;8.77;;;19.00;99.90;;;;;;5050486;28;20195;-60
2023/08/16 02:42:31;;;;;;;24.50;9.07;;;19.10;99.90;;;;;;5049094;28;20221;-60
2023/08/16 02:44:59;;;;;;;22.38;8.07;;;19.10;99.90;;;;;;5038709;28;20229;-61
2023/08/16 02:47:27;;;;;;;26.35;8.63;;;19.10;99.90;;;;;;5040801;28;20223;-60
2023/08/16 02:49:55;;;;;;;13.85;7.85;;;19.10;99.90;;;;;;5040579;28;20222;-61
2023/08/16 02:52:23;;;;;;;11.57;6.90;;;19.10;99.90;;;;;;5052179;28;20255;-60
2023/08/16 02:54:52;;;;;;;11.55;6.70;;;19.10;99.90;;;;;;5041096;28;20700;-59
2023/08/16 02:57:20;;;;;;;7.20;6.35;;;19.10;99.90;;;;;;5047727;28;20256;-61
2023/08/16 02:59:49;;;;;;;9.20;6.18;;;19.10;99.90;;;;;;5048383;28;20201;-60
2023/08/16 03:02:16;;;;;;;11.85;6.43;;;19.10;99.90;;;;;;5045342;28;20821;-60
2023/08/16 03:04:44;;;;;;;8.82;6.25;;;19.10;99.90;;;;;;5047590;28;20221;-60
2023/08/16 03:07:12;;;;;;;11.60;5.80;;;19.10;99.90;;;;;;5044717;28;20245;-60
2023/08/16 03:09:40;;;;;;;8.02;5.57;;;19.10;99.90;;;;;;5048344;28;20298;-60
2023/08/16 03:12:10;;;;;;;9.30;6.32;;;19.10;99.90;;;;;;5042477;28;20218;-62
2023/08/16 03:14:38;;;;;;;7.55;5.43;;;19.10;99.90;;;;;;5047494;28;20723;-62
2023/08/16 03:17:05;;;;;;;11.05;5.75;;;19.10;99.90;;;;;;5051031;28;20649;-61
2023/08/16 03:19:33;;;;;;;9.50;5.43;;;19.10;99.90;;;;;;5039409;28;20743;-60
2023/08/16 03:22:02;;;;;;;6.95;5.63;;;19.10;99.90;;;;;;5048682;28;20260;-59
2023/08/16 03:24:30;;;;;;;8.25;5.45;;;19.10;99.90;;;;;;5049014;28;20669;-60
2023/08/16 03:26:58;;;;;;;8.35;5.20;;;19.10;99.90;;;;;;5043838;28;20236;-60
2023/08/16 03:29:27;;;;;;;7.55;5.53;;;19.00;99.90;;;;;;5047754;28;20229;-59
2023/08/16 03:31:55;;;;;;;7.68;5.10;;;19.00;99.90;;;;;;5045414;28;20316;-59
2023/08/16 03:34:24;;;;;;;14.90;5.80;;;19.00;99.90;;;;;;5048106;28;20283;-60
2023/08/16 03:36:52;;;;;;;15.15;5.38;;;19.00;99.90;;;;;;5043121;28;20304;-62
2023/08/16 03:39:20;;;;;;;13.70;5.68;;;19.00;99.90;;;;;;5047773;28;20262;-60
2023/08/16 03:41:47;;;;;;;8.43;5.82;;;19.00;99.90;;;;;;5047674;28;20217;-60
2023/08/16 03:44:15;;;;;;;8.90;6.43;;;19.00;99.90;;;;;;5047473;28;20752;-61
2023/08/16 03:46:45;;;;;;;14.40;7.30;;;19.00;99.90;;;;;;5046870;28;20263;-60
2023/08/16 03:49:13;;;;;;;10.85;8.23;;;19.00;99.90;;;;;;5053373;28;20236;-62
2023/08/16 03:51:40;;;;;;;16.73;9.15;;;19.00;99.90;;;;;;5040497;28;20344;-63
2023/08/16 03:54:08;;;;;;;13.38;9.18;;;19.00;99.90;;;;;;5096980;22;20318;-59
2023/08/16 03:56:36;;;;;;;16.80;12.43;;;19.00;99.90;;;;;;5084156;28;20227;-61
2023/08/16 03:59:04;;;;;;;18.40;10.55;;;19.00;99.90;;;;;;5083147;28;20205;-61
2023/08/16 04:01:32;;;;;;;19.30;11.73;;;19.00;99.90;;;;;;5088284;28;20208;-62
2023/08/16 04:04:02;;;;;;;13.75;10.40;;;19.10;99.90;;;;;;5083148;28;20708;-62
2023/08/16 04:06:29;;;;;;;21.95;10.55;;;19.00;99.90;;;;;;5087873;28;20200;-61
2023/08/16 04:08:57;;;;;;;22.35;10.32;;;19.10;99.90;;;;;;5100397;28;20909;-61
2023/08/16 04:11:25;;;;;;;22.65;12.75;;;19.10;99.90;;;;;;5097816;28;20586;-61
2023/08/16 04:13:53;;;;;;;24.23;13.52;;;19.10;99.90;;;;;;5083789;28;20307;-58
2023/08/16 04:16:21;;;;;;;23.90;14.38;;;19.10;99.90;;;;;;5092439;28;20235;-62
2023/08/16 04:18:50;;;;;;;26.63;13.40;;;19.10;99.90;;;;;;5085360;28;20200;-61
2023/08/16 04:21:19;;;;;;;27.63;12.07;;;19.10;99.90;;;;;;5087753;28;20663;-61
2023/08/16 04:23:47;;;;;;;24.10;13.90;;;19.10;99.90;;;;;;5084021;28;20311;-62
2023/08/16 04:26:15;;;;;;;29.42;14.55;;;19.10;99.90;;;;;;5074027;28;20296;-61
2023/08/16 04:28:42;;;;;;;26.25;14.65;;;19.10;99.90;;;;;;5089341;28;20663;-61
2023/08/16 04:31:12;;;;;;;57.65;15.23;;;19.10;99.90;;;;;;5083515;28;20646;-61
2023/08/16 04:33:40;;;;;;;40.38;15.80;;;19.10;99.90;;;;;;5082863;28;20224;-60
2023/08/16 04:36:08;;;;;;;22.13;14.25;;;19.10;99.90;;;;;;5077581;28;20240;-61
2023/08/16 04:38:37;;;;;;;24.30;15.30;;;19.10;99.90;;;;;;5089496;28;20204;-60
2023/08/16 04:41:05;;;;;;;25.17;14.15;;;19.10;99.90;;;;;;5090554;28;20282;-62
2023/08/16 04:43:33;;;;;;;26.85;15.30;;;19.10;99.90;;;;;;5104088;28;20223;-61
2023/08/16 04:46:01;;;;;;;20.40;12.68;;;19.10;99.90;;;;;;5086610;28;20637;-61
2023/08/16 04:48:29;;;;;;;21.35;13.40;;;19.10;99.90;;;;;;5101541;28;20253;-62
2023/08/16 04:50:57;;;;;;;21.83;13.25;;;19.10;99.90;;;;;;5100396;28;20633;-61
2023/08/16 04:53:24;;;;;;;22.58;13.35;;;19.10;99.90;;;;;;5094270;28;20270;-61
2023/08/16 04:55:54;;;;;;;24.85;15.60;;;19.20;99.90;;;;;;5096706;28;20283;-60
2023/08/16 04:58:21;;;;;;;22.33;14.30;;;19.20;99.90;;;;;;5081593;28;20239;-60
2023/08/16 05:00:49;;;;;;;28.80;15.60;;;19.20;99.90;;;;;;5087327;28;20199;-61
2023/08/16 05:03:17;;;;;;;27.13;15.63;;;19.30;99.90;;;;;;5091860;28;20259;-61
2023/08/16 05:05:45;;;;;;;36.58;18.77;;;19.30;99.90;;;;;;5095266;28;20632;-61
2023/08/16 05:08:13;;;;;;;33.13;18.55;;;19.30;99.90;;;;;;5081207;28;20227;-60
2023/08/16 05:10:41;;;;;;;35.35;18.42;;;19.30;99.90;;;;;;5097747;28;20673;-62
2023/08/16 05:13:10;;;;;;;42.70;18.27;;;19.40;99.90;;;;;;5105958;28;20271;-59
2023/08/16 05:15:38;;;;;;;32.55;17.63;;;19.40;99.90;;;;;;5090610;28;20287;-62
2023/08/16 05:18:06;;;;;;;38.00;19.40;;;19.40;99.90;;;;;;5094042;28;20588;-62
2023/08/16 05:20:35;;;;;;;40.67;19.00;;;19.40;99.90;;;;;;5100297;28;20201;-61
2023/08/16 05:23:04;;;;;;;39.67;18.58;;;19.40;99.90;;;;;;5097053;28;20365;-61
2023/08/16 05:25:31;;;;;;;44.65;20.63;;;19.40;99.90;;;;;;5095973;28;20614;-61
2023/08/16 05:27:59;;;;;;;42.78;20.85;;;19.40;99.90;;;;;;5088440;28;20654;-58
2023/08/16 05:30:29;;;;;;;41.95;20.15;;;19.40;99.90;;;;;;5093848;28;20255;-60
2023/08/16 05:32:56;;;;;;;45.83;20.80;;;19.40;99.90;;;;;;5109788;28;20251;-60
2023/08/16 05:35:25;;;;;;;50.97;21.27;;;19.40;99.90;;;;;;5102039;28;20206;-61
2023/08/16 05:37:54;;;;;;;48.17;21.15;;;19.40;99.90;;;;;;5110081;28;20656;-60
2023/08/16 05:40:22;;;;;;;51.63;21.55;;;19.40;99.90;;;;;;5097066;28;20211;-60
2023/08/16 05:42:50;;;;;;;45.83;22.50;;;19.50;99.90;;;;;;5080703;28;20298;-58
2023/08/16 05:45:21;;;;;;;31.98;14.57;;;19.50;99.90;;;;;;5104430;28;20257;-61
2023/08/16 05:47:50;;;;;;;38.08;18.13;;;19.50;99.90;;;;;;5105245;28;20286;-61
2023/08/16 05:50:18;;;;;;;52.80;21.88;;;19.60;99.90;;;;;;5097849;28;20206;-60
2023/08/16 05:52:46;;;;;;;59.67;23.10;;;19.70;99.90;;;;;;5110290;28;20327;-60
2023/08/16 05:55:14;;;;;;;42.95;19.85;;;19.70;99.90;;;;;;5099165;28;20618;-61
2023/08/16 05:57:42;;;;;;;43.10;19.02;;;19.80;99.90;;;;;;5103204;28;20200;-61
2023/08/16 06:00:11;;;;;;;46.95;20.38;;;19.80;99.90;;;;;;5108380;28;20631;-61
2023/08/16 06:02:39;;;;;;;48.75;20.10;;;19.90;99.90;;;;;;5096779;28;20224;-61
2023/08/16 06:05:09;;;;;;;64.63;23.30;;;19.90;99.90;;;;;;5107304;28;20208;-61
2023/08/16 06:07:37;;;;;;;60.13;23.92;;;20.00;99.90;;;;;;5103542;28;20208;-61
2023/08/16 06:10:06;;;;;;;67.03;24.25;;;20.10;99.90;;;;;;5099381;28;20645;-61
2023/08/16 06:12:34;;;;;;;53.97;21.55;;;20.20;99.90;;;;;;5110154;28;20219;-61
2023/08/16 06:15:02;;;;;;;86.35;27.50;;;20.20;99.90;;;;;;5098018;28;20654;-61
2023/08/16 06:17:30;;;;;;;72.93;24.67;;;20.30;99.90;;;;;;5104244;28;20607;-61
2023/08/16 06:19:58;;;;;;;62.50;23.98;;;20.30;99.90;;;;;;5106085;28;20633;-61
2023/08/16 06:22:27;;;;;;;69.63;23.02;;;20.40;99.90;;;;;;5096382;28;20308;-61
2023/08/16 06:24:55;;;;;;;68.60;24.20;;;20.40;99.90;;;;;;5108645;28;20291;-61
2023/08/16 06:27:23;;;;;;;68.65;23.60;;;20.40;99.90;;;;;;5101284;28;20280;-60
2023/08/16 06:29:51;;;;;;;71.38;23.73;;;20.40;99.90;;;;;;5100594;28;20215;-60
2023/08/16 06:32:19;;;;;;;66.45;23.70;;;20.50;99.90;;;;;;5087290;28;20319;-59
2023/08/16 06:34:47;;;;;;;37.40;16.52;;;20.50;99.90;;;;;;5085769;28;20204;-59
2023/08/16 06:37:15;;;;;;;61.35;24.40;;;20.60;99.90;;;;;;5095932;28;20204;-60
2023/08/16 06:39:44;;;;;;;67.45;26.25;;;20.60;99.90;;;;;;5099302;28;20278;-60
2023/08/16 06:42:13;;;;;;;52.92;25.33;;;20.70;99.90;;;;;;5092508;28;20263;-59
2023/08/16 06:44:41;;;;;;;62.30;22.70;;;20.70;99.90;;;;;;5109081;28;20286;-59
2023/08/16 06:47:09;;;;;;;66.20;24.10;;;20.70;99.90;;;;;;5098642;28;20659;-59
2023/08/16 06:49:37;;;;;;;59.40;25.30;;;20.80;99.90;;;;;;5101681;28;20207;-61
2023/08/16 06:52:05;;;;;;;51.97;22.50;;;20.80;99.90;;;;;;5106033;28;20258;-61
2023/08/16 06:54:33;;;;;;;55.35;23.50;;;20.90;99.90;;;;;;5095646;28;20724;-61
2023/08/16 06:57:03;;;;;;;54.17;23.40;;;21.00;99.90;;;;;;5107495;28;20279;-61
2023/08/16 06:59:31;;;;;;;43.65;21.85;;;21.10;99.90;;;;;;5101410;28;20697;-60
2023/08/16 07:01:59;;;;;;;45.03;21.88;;;21.10;99.90;;;;;;5099382;28;20188;-60
2023/08/16 07:04:27;;;;;;;42.20;22.23;;;21.10;99.90;;;;;;5108753;28;20302;-61
2023/08/16 07:06:55;;;;;;;49.03;23.98;;;21.10;99.90;;;;;;5092720;28;20264;-61
2023/08/16 07:09:24;;;;;;;51.90;24.45;;;21.10;99.90;;;;;;5088396;28;20226;-60
2023/08/16 07:11:52;;;;;;;55.20;24.63;;;21.10;99.90;;;;;;5102658;28;20223;-60
2023/08/16 07:14:21;;;;;;;49.58;23.80;;;21.00;99.90;;;;;;5095608;28;20252;-61
2023/08/16 07:16:51;;;;;;;48.53;23.35;;;21.00;99.90;;;;;;5108945;28;20586;-61
2023/08/16 07:19:19;;;;;;;57.95;26.17;;;21.00;99.90;;;;;;5099651;28;20255;-60
2023/08/16 07:21:48;;;;;;;48.55;24.65;;;21.00;99.90;;;;;;5100582;28;20296;-59
2023/08/16 07:24:15;;;;;;;54.70;24.30;;;21.10;99.90;;;;;;5107350;28;20223;-57
2023/08/16 07:26:43;;;;;;;52.22;25.95;;;21.10;99.90;;;;;;5094916;28;20200;-61
2023/08/16 07:29:11;;;;;;;55.65;25.40;;;21.10;99.90;;;;;;5105585;28;20204;-60
2023/08/16 07:31:40;;;;;;;51.97;25.58;;;21.10;99.90;;;;;;5102276;28;20745;-60
2023/08/16 07:34:08;;;;;;;45.95;24.08;;;21.10;99.90;;;;;;5097178;28;20306;-61
2023/08/16 07:36:36;;;;;;;47.35;24.85;;;21.00;99.90;;;;;;5107822;28;20256;-61
2023/08/16 07:39:04;;;;;;;50.85;23.45;;;21.10;99.90;;;;;;5096248;28;20227;-60
2023/08/16 07:41:32;;;;;;;45.20;22.75;;;21.10;99.90;;;;;;5102485;28;20236;-60
2023/08/16 07:44:00;;;;;;;52.97;24.33;;;21.10;99.90;;;;;;5090210;28;20302;-60
2023/08/16 07:46:28;;;;;;;47.45;25.17;;;21.20;99.90;;;;;;5108084;28;20199;-60
2023/08/16 07:48:58;;;;;;;52.63;25.45;;;21.40;99.90;;;;;;5095984;28;20199;-60
2023/08/16 07:51:26;;;;;;;52.92;24.73;;;21.50;99.90;;;;;;5103106;28;20293;-59
2023/08/16 07:53:53;;;;;;;50.10;23.73;;;21.60;99.90;;;;;;5103665;28;20376;-60
2023/08/16 07:56:21;;;;;;;46.13;22.63;;;21.70;99.90;;;;;;5095483;28;20227;-61
2023/08/16 07:58:49;;;;;;;46.58;21.33;;;21.80;99.90;;;;;;5078319;28;20616;-60
2023/08/16 08:01:17;;;;;;;48.05;22.77;;;21.80;99.90;;;;;;5104665;28;20231;-60
2023/08/16 08:03:46;;;;;;;42.08;21.98;;;21.80;99.90;;;;;;5102645;28;20765;-60
2023/08/16 08:06:15;;;;;;;44.08;22.42;;;21.80;99.90;;;;;;5096046;28;20204;-58
2023/08/16 08:08:43;;;;;;;43.92;22.10;;;21.80;99.90;;;;;;5108094;28;20230;-60
2023/08/16 08:11:11;;;;;;;41.55;21.98;;;21.80;99.90;;;;;;5098271;28;20286;-60
2023/08/16 08:13:39;;;;;;;41.28;21.17;;;21.90;99.90;;;;;;5101022;28;20277;-60
2023/08/16 08:16:07;;;;;;;37.95;19.92;;;22.00;99.90;;;;;;5105733;28;20282;-60
2023/08/16 08:18:35;;;;;;;36.35;20.15;;;22.10;99.90;;;;;;5097703;28;20766;-60
2023/08/16 08:21:03;;;;;;;36.42;20.77;;;22.30;99.90;;;;;;5110183;28;20280;-61
2023/08/16 08:23:33;;;;;;;33.03;19.60;;;22.40;99.90;;;;;;5104943;28;20291;-60
2023/08/16 08:26:01;;;;;;;35.92;18.58;;;22.50;99.90;;;;;;5101951;28;20235;-59
2023/08/16 08:28:28;;;;;;;29.80;18.05;;;22.60;99.90;;;;;;5112116;28;20229;-60
2023/08/16 08:30:56;;;;;;;38.15;20.50;;;22.80;99.90;;;;;;5099783;28;20256;-61
2023/08/16 08:33:25;;;;;;;38.78;21.70;;;22.80;99.90;;;;;;5106806;28;20224;-61
2023/08/16 08:35:53;;;;;;;36.58;21.95;;;22.80;99.90;;;;;;5107350;28;20260;-60
2023/08/16 08:38:21;;;;;;;38.70;21.77;;;22.80;99.90;;;;;;5099118;28;20303;-60
2023/08/16 08:40:55;;;;;;;32.22;20.90;;;22.90;99.90;;;;;;5111734;28;20728;-60
2023/08/16 08:43:23;;;;;;;36.05;21.50;;;22.90;99.90;;;;;;5094876;28;20251;-59
2023/08/16 08:45:51;;;;;;;28.95;18.30;;;23.00;99.90;;;;;;5106622;28;20282;-60
2023/08/16 08:48:19;;;;;;;37.40;19.55;;;23.00;99.90;;;;;;5099058;28;20667;-61
2023/08/16 08:50:47;;;;;;;31.05;18.85;;;23.10;99.90;;;;;;5114991;28;20235;-61
2023/08/16 08:53:15;;;;;;;34.13;16.85;;;23.20;99.90;;;;;;5107794;28;20306;-61
2023/08/16 08:55:44;;;;;;;24.65;16.30;;;23.30;99.90;;;;;;5105372;28;20294;-61
2023/08/16 08:58:13;;;;;;;28.58;15.73;;;23.30;99.90;;;;;;5099609;28;20216;-60
2023/08/16 09:00:41;;;;;;;27.33;16.27;;;23.40;99.90;;;;;;5111328;28;20301;-60
2023/08/16 09:03:09;;;;;;;25.00;15.10;;;23.50;99.90;;;;;;5101008;28;20306;-60
2023/08/16 09:05:39;;;;;;;24.15;14.45;;;23.70;99.90;;;;;;5104316;28;20202;-60
2023/08/16 09:08:08;;;;;;;24.52;15.75;;;23.80;99.90;;;;;;5109048;28;20210;-59
2023/08/16 09:10:37;;;;;;;21.45;15.15;;;23.80;99.90;;;;;;5097818;28;20635;-60
2023/08/16 09:13:06;;;;;;;28.48;14.60;;;23.80;99.90;;;;;;5108700;28;20224;-61
2023/08/16 09:15:35;;;;;;;22.27;13.85;;;23.90;99.90;;;;;;5103952;28;20195;-60
2023/08/16 09:18:07;;;;;;;20.55;14.18;;;23.90;99.90;;;;;;5100571;28;20652;-60
2023/08/16 09:20:35;;;;;;;19.00;12.63;;;24.00;99.90;;;;;;5111060;28;20206;-60
2023/08/16 09:23:04;;;;;;;18.33;12.95;;;24.10;99.90;;;;;;5099659;28;20211;-60
2023/08/16 09:25:32;;;;;;;17.02;12.32;;;24.40;99.90;;;;;;5104496;28;20204;-60
2023/08/16 09:28:01;;;;;;;16.50;10.95;;;24.80;99.90;;;;;;5103645;28;20678;-60
2023/08/16 09:30:29;;;;;;;11.80;9.55;;;25.10;99.90;;;;;;5109972;28;20207;-60
2023/08/16 09:32:59;;;;;;;13.70;9.63;;;25.40;99.90;;;;;;5098618;28;20214;-60
2023/08/16 09:35:28;;;;;;;14.60;10.15;;;25.70;99.90;;;;;;5105184;28;20204;-60
2023/08/16 09:37:57;;;;;;;14.95;9.25;;;25.80;99.90;;;;;;5106674;28;20662;-60
2023/08/16 09:40:25;;;;;;;9.43;7.60;;;25.80;99.90;;;;;;5097236;28;20287;-60
2023/08/16 09:42:53;;;;;;;10.60;6.97;;;25.60;99.90;;;;;;5106154;28;20842;-60
2023/08/16 09:45:28;;;;;;;10.70;6.53;;;25.50;99.90;;;;;;5105623;28;20196;-60
2023/08/16 09:47:56;;;;;;;7.57;6.88;;;25.40;99.90;;;;;;5106517;28;20224;-60
2023/08/16 09:50:29;;;;;;;7.90;6.72;;;25.20;99.90;;;;;;5096847;28;20206;-59
2023/08/16 09:52:58;;;;;;;8.32;6.80;;;25.20;99.90;;;;;;5109073;28;20710;-60
2023/08/16 09:55:27;;;;;;;8.05;7.35;;;25.40;99.90;;;;;;5101935;28;20214;-60
2023/08/16 09:57:55;;;;;;;9.68;7.57;;;25.50;99.90;;;;;;5101142;28;20204;-60
2023/08/16 10:00:24;;;;;;;11.40;7.72;;;25.70;99.90;;;;;;5110216;28;20286;-61
2023/08/16 10:02:52;;;;;;;10.52;7.82;;;25.80;99.90;;;;;;5080801;28;20758;-61
2023/08/16 10:05:20;;;;;;;6.75;6.07;;;26.10;99.90;;;;;;5105781;28;20211;-61
2023/08/16 10:07:53;;;;;;;11.70;6.93;;;26.20;99.90;;;;;;5105757;28;20238;-60
2023/08/16 10:10:20;;;;;;;8.43;6.07;;;26.20;99.90;;;;;;5097161;28;20637;-61
2023/08/16 10:12:48;;;;;;;8.77;6.82;;;26.10;99.90;;;;;;5110110;28;20216;-61
2023/08/16 10:15:16;;;;;;;9.43;6.60;;;26.10;99.90;;;;;;5091842;28;20295;-61
2023/08/16 10:17:44;;;;;;;8.38;6.13;;;25.90;99.90;;;;;;5090237;28;20242;-61
2023/08/16 10:20:25;;;;;;;9.95;6.68;;;26.00;99.90;;;;;;5090040;28;20208;-60
2023/08/16 10:22:58;;;;;;;7.15;6.45;;;26.00;99.90;;;;;;5084727;28;20219;-61
2023/08/16 10:25:28;;;;;;;7.70;6.57;;;26.10;99.90;;;;;;5090810;28;20287;-61
2023/08/16 10:27:56;;;;;;;7.60;6.22;;;26.00;99.90;;;;;;5092747;28;20214;-61
2023/08/16 10:30:25;;;;;;;7.60;6.88;;;26.10;99.90;;;;;;5090566;28;20740;-61
2023/08/16 10:32:58;;;;;;;7.07;6.18;;;26.40;99.90;;;;;;5089652;28;20260;-61
2023/08/16 10:35:26;;;;;;;8.88;6.13;;;26.60;99.90;;;;;;5090680;28;20283;-61
2023/08/16 10:37:57;;;;;;;6.97;6.28;;;26.70;99.90;;;;;;5101927;28;20226;-61
2023/08/16 10:40:25;;;;;;;7.45;6.35;;;27.00;99.90;;;;;;5095495;28;20204;-61
2023/08/16 10:42:57;;;;;;;10.00;6.55;;;27.50;99.90;;;;;;5105055;28;20217;-61
2023/08/16 10:45:26;;;;;;;9.25;6.03;;;28.10;99.90;;;;;;5104153;28;20203;-61
2023/08/16 10:48:16;;;;;;;7.85;6.38;;;28.80;99.90;;;;;;5108336;28;20199;-61
2023/08/16 10:50:44;;;;;;;7.57;6.80;;;29.50;99.90;;;;;;5085403;28;20659;-62
2023/08/16 10:53:18;;;;;;;5.95;5.45;;;30.00;99.90;;;;;;5087149;28;20231;-61
2023/08/16 10:55:51;;;;;;;6.53;5.70;;;30.30;99.90;;;;;;5079748;28;20689;-61
2023/08/16 10:58:21;;;;;;;5.80;5.40;;;30.30;99.90;;;;;;5081526;28;20299;-61
2023/08/16 11:00:56;;;;;;;6.30;5.70;;;30.10;99.90;;;;;;5087606;28;20199;-61
2023/08/16 11:03:26;;;;;;;6.72;5.47;;;29.80;99.90;;;;;;5083101;28;20243;-61
2023/08/16 11:05:54;;;;;;;6.63;5.50;;;29.50;99.90;;;;;;5104453;28;20203;-61
2023/08/16 11:08:23;;;;;;;6.38;5.78;;;29.40;99.90;;;;;;5096187;28;20282;-62
2023/08/16 11:10:51;;;;;;;9.05;5.70;;;29.40;99.90;;;;;;5108675;28;20617;-61
2023/08/16 11:13:19;;;;;;;9.18;5.63;;;29.20;99.90;;;;;;5099936;28;20306;-61
2023/08/16 11:15:48;;;;;;;7.38;5.40;;;28.90;99.90;;;;;;5100151;28;20636;-61
2023/08/16 11:18:26;;;;;;;5.93;5.30;;;29.00;99.90;;;;;;5108073;28;20195;-61
2023/08/16 11:21:01;;;;;;;6.70;5.32;;;28.90;99.90;;;;;;5082269;28;20233;-61
2023/08/16 11:23:33;;;;;;;5.13;4.68;;;28.80;99.90;;;;;;5103335;28;20243;-61
2023/08/16 11:26:01;;;;;;;7.50;5.32;;;28.70;99.90;;;;;;5100387;28;20236;-60
2023/08/16 11:28:30;;;;;;;6.15;5.30;;;28.80;99.90;;;;;;5094628;28;20249;-62
2023/08/16 11:30:58;;;;;;;6.82;4.88;;;28.80;99.90;;;;;;5102320;28;20219;-61
2023/08/16 11:33:31;;;;;;;5.28;4.88;;;28.90;99.90;;;;;;5103662;28;20250;-62
2023/08/16 11:36:00;;;;;;;5.53;4.93;;;29.00;99.90;;;;;;5104843;28;20264;-61
2023/08/16 11:38:28;;;;;;;5.60;5.10;;;29.40;99.90;;;;;;5095302;28;20291;-61
2023/08/16 11:40:57;;;;;;;5.95;5.30;;;30.00;99.90;;;;;;5106990;28;20200;-61
2023/08/16 11:43:29;;;;;;;5.70;5.05;;;30.60;99.90;;;;;;5093353;28;20229;-61
2023/08/16 11:45:57;;;;;;;6.90;5.10;;;30.80;99.90;;;;;;5098713;28;20207;-61
2023/08/16 11:48:25;;;;;;;7.90;5.10;;;30.90;99.90;;;;;;5108390;28;20688;-61
2023/08/16 11:50:53;;;;;;;7.45;5.22;;;31.00;99.90;;;;;;5095729;28;20248;-62
2023/08/16 11:53:22;;;;;;;5.28;4.78;;;31.10;99.90;;;;;;5102917;28;20296;-61
2023/08/16 11:56:01;;;;;;;5.00;4.60;;;31.10;99.90;;;;;;5103511;28;20308;-61
2023/08/16 11:58:29;;;;;;;8.30;5.00;;;31.30;99.90;;;;;;5082284;28;20212;-61
2023/08/16 12:01:02;;;;;;;5.35;4.85;;;31.30;99.90;;;;;;5095971;28;20196;-59
2023/08/16 12:03:33;;;;;;;4.47;4.18;;;31.30;99.90;;;;;;5102403;28;20280;-58
2023/08/16 12:06:05;;;;;;;5.82;5.00;;;31.10;99.90;;;;;;5104548;28;20245;-59
2023/08/16 12:08:33;;;;;;;6.13;4.28;;;30.90;99.90;;;;;;5097881;28;20231;-59
2023/08/16 12:11:02;;;;;;;5.65;4.57;;;30.60;99.90;;;;;;5096512;28;20245;-59
2023/08/16 12:13:31;;;;;;;4.70;4.35;;;30.30;99.90;;;;;;5092172;28;20311;-59
2023/08/16 12:15:58;;;;;;;4.45;4.22;;;30.10;99.90;;;;;;5103344;28;20302;-60
2023/08/16 12:18:26;;;;;;;5.10;4.68;;;29.90;99.90;;;;;;5094145;28;20200;-59
2023/08/16 12:20:53;;;;;;;4.68;4.20;;;29.90;99.90;;;;;;5093505;28;20203;-58
2023/08/16 12:23:21;;;;;;;4.95;4.63;;;30.10;99.90;;;;;;5101793;28;20250;-63
2023/08/16 12:25:49;;;;;;;5.38;4.53;;;30.30;99.90;;;;;;5099294;28;20290;-63
2023/08/16 12:28:19;;;;;;;5.10;4.57;;;30.30;99.90;;;;;;5093220;28;20204;-64
2023/08/16 12:30:47;;;;;;;4.75;4.35;;;30.10;99.90;;;;;;5091586;28;20210;-63
2023/08/16 12:33:16;;;;;;;4.20;3.90;;;30.00;99.90;;;;;;5089508;28;20225;-65
2023/08/16 12:35:43;;;;;;;5.68;4.38;;;29.80;99.90;;;;;;5097853;28;20304;-64
2023/08/16 12:38:12;;;;;;;5.30;4.78;;;29.60;99.90;;;;;;5106658;28;20244;-63
2023/08/16 12:40:41;;;;;;;5.80;4.43;;;29.50;99.90;;;;;;5094499;28;20215;-63
2023/08/16 12:43:10;;;;;;;4.85;4.55;;;29.60;99.90;;;;;;5103477;28;20227;-64